默认 日期 大小 文件数 浏览量 最新下载 xml
let/s磁力链接相关资源由用户搜索指令自动获取,结果来源于网络,本站不存储任何资料,亦不承担任何责任,请于24小时内删除,搜索到6410个磁力,显示前4000条数据,用时18ms。
    {"Importante Leeme!.vbs": 206, "Let's.Get.Divorced.S01.E02.2023.WEB-DL.1080p-Dual-Lat.mkv": 2860497018, "Hackstore.Ac - Peliculas, Series y animes Gratis en Los Mejores servidores.url": 47}
创建时间: 2023-06-23 23:47:11 大小:2.66 GB 文件数量:3 热度:3 最近下载:2025-01-22 09:53:07
    {"Importante Leeme!.vbs": 206, "Let's.Get.Divorced.S01.E01.2023.WEB-DL.1080p-Dual-Lat.mkv": 2492179521, "Hackstore.Ac - Peliculas, Series y animes Gratis en Los Mejores servidores.url": 47}
创建时间: 2023-06-23 18:39:40 大小:2.32 GB 文件数量:3 热度:3 最近下载:2025-01-15 15:05:05
    {"mic_blair_monique_480p_2000.mp4": 742122883, "Torrent Downloads piratepublic.com.txt": 915, "Torrent Download from piratepublic.com.rtf": 280121}
创建时间: 2023-06-23 16:51:25 大小:708.01 MB 文件数量:3 热度:5 最近下载:2025-02-17 16:45:05
    {"Importante Leeme!.vbs": 206, "Let's.Get.Divorced.S01.E08.2023.WEB-DL.1080p-Dual-Lat.mkv": 2791118554, "Hackstore.Ac - Peliculas, Series y animes Gratis en Los Mejores servidores.url": 47}
创建时间: 2023-06-23 16:19:57 大小:2.6 GB 文件数量:3 热度:4 最近下载:2025-02-09 07:54:09
    {"Latest Magazines & Adult Images Collection.txt": 83, "Playboy's Lingerie - Sugar & Spicy Or Nude & Naughty - Canadian Hottie Danielle Moore Gets Naked & Let's.pdf": 55571455}
创建时间: 2023-06-23 06:52:47 大小:53 MB 文件数量:2 热度:4 最近下载:2025-01-15 16:55:05
    {"~Get Your Files Here !": {"Bonus Resources.txt": 386, "1 - Course Introduction.mp4": 81673297, "8 - Lesson 7 At the Mall.mp4": 219632439, "4 - Lesson 3 What Do You Do.mp4": 146374667, "9 - Lesson 8 How Do You Feel.mp4": 174951329, "6 - Lesson 5 Hows the ...
创建时间: 2023-06-22 21:52:48 大小:2.36 GB 文件数量:15 热度:2 最近下载:2025-02-08 17:15:04
    ... ).mp3": 14405625, "VA - Episode 012 Let's Keep the Trance Alive - Front ... ": 232792, "2023 - VA - Episode 012 Let's Keep the Trance Alive_tracklist.txt ...
创建时间: 2023-06-22 19:25:27 大小:165.86 MB 文件数量:12 热度:4 最近下载:2025-02-17 17:36:07
    {"Przeczytaj!!!!.txt": 6191, "UP BY D-E-V-I-L.gif": 101304, "Wiecej fajnych torrentow i warezow zapraszam.url": 113, "Alena - Good Morning, Let's Fuck In The Ass! - [TeensAnalyzed] (2013) [FullHD].wmv": 853860063}
创建时间: 2023-06-22 07:11:40 大小:814.41 MB 文件数量:4 热度:4 最近下载:2025-02-17 06:51:08
    {"1.jpg": 329260, "2.jpg": 301022, "3.jpg": 332870, "4.jpg": 208224}
创建时间: 2023-06-21 08:17:51 大小:1.12 MB 文件数量:4 热度:3 最近下载:2025-05-30 10:16:01
    ... .VOB": 61571072}, "1984.05.14_DG_Let's Face Toronto.md5": 627, "1984 ...
创建时间: 2023-06-20 20:09:50 大小:4.12 GB 文件数量:14 热度:5 最近下载:2025-01-18 11:16:05
    ... Favour.mp3": 6205108, "01 - Faron's Flamingos - Do You Love Me ... .mp3": 10895642, "05 - Earl Preston's Realms - Daddy Rolling Stone.mp3 ... ": 8592650, "01 - The Kirkbys - It's A Crime.mp3": 6880066, "10 ...
创建时间: 2023-06-19 18:45:27 大小:229.45 MB 文件数量:32 热度:7 最近下载:2025-07-31 09:06:01
    {"poster.jpg": 50311, "screens.jpg": 187182, "mic.cassidy.farrah.bb110614.480p.1000.mp4": 274756759}
创建时间: 2023-06-19 16:37:49 大小:262.25 MB 文件数量:3 热度:2 最近下载:2025-01-12 01:39:06
    ... , "03 - Zantalino and his Orchestra - Let's Twist Again.flac": 17152072, "04 ...
创建时间: 2023-06-18 06:55:28 大小:279.12 MB 文件数量:17 热度:4 最近下载:2025-01-21 23:51:10
    {"01.jpg": 6052448, "02.jpg": 4308840, "03.jpg": 6030918, "04.jpg": 6225425, "05.jpg": 5889530, "06.jpg": 5995171, "07.jpg": 5751683, "08.jpg": 5752745, "09.jpg": 5382714, "10.jpg": 4341470, "11.jpg": 4556962, "12.jpg": 5361860, "13.jpg": 4729851, "14.jpg ...
创建时间: 2023-06-17 20:17:04 大小:302.57 MB 文件数量:58 热度:4 最近下载:2025-03-13 20:22:02
    ... That's What My Man Is For.flac": 29955347, "01 Let The ... Your Mind.flac": 5782228, "12 Let the Music Take Your Mind ...
创建时间: 2023-06-17 17:23:10 大小:233.72 MB 文件数量:15 热度:4 最近下载:2025-01-23 11:31:03
    {"~Get Your Files Here !": {"Bonus Resources.txt": 386, "LetsColour-MagicalKingdom-.pdf": 62166701}, "Get Bonus Downloads Here.url": 183}
创建时间: 2023-06-15 16:43:55 大小:59.29 MB 文件数量:3 热度:2 最近下载:2025-01-17 08:53:08
    {"Alexa Grace.mp4": 339374981, "淫魔之首@caoliu.txt": 0, "[email protected]": 113, "[email protected]@永久地址.txt": 17, "淫魔之首@草榴社区最新地址.url": 109, "BT龙家族与您共庆色中色十一周年庆.jpg": 691318}
创建时间: 2023-06-14 21:55:51 大小:324.31 MB 文件数量:6 热度:14 最近下载:2025-10-10 22:16:03
    {"01.jpg": 49710, "Lets talk Sex (1984).mkv": 1858525712}
创建时间: 2023-06-14 16:23:38 大小:1.73 GB 文件数量:2 热度:9 最近下载:2025-01-15 13:43:13
    ... 【四驱兄弟Let's&Go!!】【41】 ... 【四驱兄弟Let's&Go!!】【41】 ...
创建时间: 2023-06-13 23:31:24 大小:329.14 MB 文件数量:3 热度:3 最近下载:2025-08-02 07:13:09
    ... , "19. Babes In Toyland - He's My Thing.mp3": 7011673, "13 ... . Type O Negative - My Girlfriend's Girlfriend.mp3": 9061771, "34. nothing ...
创建时间: 2023-06-12 19:51:17 大小:422.75 MB 文件数量:50 热度:3 最近下载:2025-02-15 03:29:02